Latest Coastal Weather Observations for Evans Head

IDN60701

Issued at 6:15 pm EDT Sunday 26 October 2014 (issued every 10 minutes, with the page automatically refreshed every 10 minutes)

About coastal observations | Map of coastal stations | Coastal observations for NSW | Marine services | Other Formats
Station Details ID: 058212 Name: EVANS HEAD RAAF BOMBING RANGE AWS Lat: -29.18 Lon: 153.40 Height: 62.5 m
Data from the previous 72 hours. | See also: Recent months at Evans Head
Date/Time
EDT
Temp

°C
Wind Pressure Rain
since 9am
mm
Weather Cloud Vis
km
Sea
Height
m
Swell
Dir
 
Speed
knots
Gust
knots
hPa Trend Height
m
Period
s
Dir
26/06:00pm 23.3 N 15 23 1008.3 - 0.0 - - - - - - -
26/05:41pm 24.2 N 15 25 1008.3 - 0.0 - - - - - - -
26/05:30pm 25.0 N 14 21 1008.3 - 0.0 - - - - - - -
26/05:00pm 25.9 N 13 20 1008.5 - 0.0 - - - - - - -
26/04:30pm 26.5 N 11 18 1008.5 - 0.0 - - - - - - -
26/04:00pm 27.6 N 13 20 1008.7 - 0.0 - - - - - - -
26/03:30pm 29.7 N 11 16 1009.1 - 0.0 - - - - - - -
26/03:00pm 29.0 NNE 11 17 1009.5 - 0.0 - - - - - - -
26/02:30pm 29.1 NNE 10 16 1010.3 - 0.0 - - - - - - -
26/02:00pm 30.5 NNE 9 15 1010.8 - 0.0 - - - - - - -
26/01:30pm 30.3 NNE 9 13 1011.4 - 0.0 - - - - - - -
26/01:00pm 30.3 NNE 10 15 1012.0 - 0.0 - - - - - - -
26/12:30pm 31.1 NNE 8 13 1012.5 - 0.0 - - - - - - -
26/12:00pm 30.2 NNE 8 13 1013.0 - 0.0 - - - - - - -
26/11:30am 30.3 NNE 8 12 1013.7 - 0.0 - - - - - - -
26/11:00am 30.4 N 4 8 1014.2 - 0.0 - - - - - - -
26/10:30am 29.9 N 6 8 1014.4 - 0.0 - - - - - - -
26/10:00am 28.0 N 7 10 1014.8 - 0.0 - - - - - - -
26/09:30am 26.6 N 7 10 1015.0 - 0.0 - - - - - - -
26/09:00am 24.3 N 2 5 1015.1 - 0.0 - - - - - - -
26/08:30am 22.9 NNE 4 7 1014.8 - 0.0 - - - - - - -
26/08:00am 21.2 CALM 0 0 1015.1 - 0.0 - - - - - - -
26/07:30am 18.9 N 1 4 1015.2 - 0.0 - - - - - - -
26/07:00am 17.8 N 5 7 1014.7 - 0.0 - - - - - - -
26/06:30am 17.2 N 6 8 1014.5 - 0.0 - - - - - - -
26/06:00am 16.8 N 5 7 1014.1 - 0.0 - - - - - - -
26/05:30am 16.8 N 5 7 1013.9 - 0.0 - - - - - - -
26/05:00am 17.2 N 7 9 1013.7 - 0.0 - - - - - - -
26/04:30am 17.3 N 7 8 1013.9 - 0.0 - - - - - - -
26/04:00am 17.6 N 7 8 1014.0 - 0.0 - - - - - - -
26/03:30am 17.7 N 7 8 1014.1 - 0.0 - - - - - - -
26/03:00am 17.6 N 7 9 1014.2 - 0.0 - - - - - - -
26/02:30am 17.6 N 7 8 1014.5 - 0.0 - - - - - - -
26/02:00am 18.2 N 6 8 1014.7 - 0.0 - - - - - - -
26/01:30am 17.8 N 6 7 1015.1 - 0.0 - - - - - - -
26/01:00am 19.0 NE 4 4 1015.5 - 0.0 - - - - - - -
26/12:30am 19.1 CALM 0 0 1015.7 - 0.0 - - - - - - -
26/12:00am 19.8 SE 1 3 1016.0 - 0.0 - - - - - - -
 
Date/Time
EDT
Temp

°C
Wind Pressure Rain
since 9am
mm
Weather Cloud Vis
km
Sea
Height
m
Swell
Dir
 
Speed
knots
Gust
knots
hPa Trend Height
m
Period
s
Dir
25/11:30pm 19.9 S 2 3 1015.9 - 0.0 - - - - - - -
25/11:00pm 19.8 S 4 5 1015.8 - 0.0 - - - - - - -
25/10:30pm 20.1 SSW 5 6 1015.7 - 0.0 - - - - - - -
25/10:00pm 20.3 CALM 0 0 1015.5 - 0.0 - - - - - - -
25/09:30pm 19.5 N 1 4 1015.3 - 0.0 - - - - - - -
25/09:00pm 19.4 N 5 7 1015.1 - 0.0 - - - - - - -
25/08:30pm 19.8 N 7 9 1014.9 - 0.0 - - - - - - -
25/08:00pm 20.7 N 9 12 1014.6 - 0.0 - - - - - - -
25/07:30pm 21.0 N 9 13 1014.3 - 0.0 - - - - - - -
25/07:00pm 21.2 N 10 15 1014.1 - 0.0 - - - - - - -
25/06:30pm 21.4 N 10 15 1013.9 - 0.0 - - - - - - -
25/06:00pm 22.4 N 11 18 1013.7 - 0.0 - - - - - - -
25/05:30pm 22.9 N 11 16 1013.5 - 0.0 - - - - - - -
25/05:00pm 22.0 N 11 17 1013.1 - 0.0 - - - - - - -
25/04:30pm 23.4 NNE 10 15 1012.7 - 0.0 - - - - - - -
25/04:00pm 27.2 NNE 11 20 1012.4 - 0.0 - - - - - - -
25/03:30pm 27.3 NNE 12 21 1012.6 - 0.0 - - - - - - -
25/03:00pm 29.3 NNE 11 16 1012.8 - 0.0 - - - - - - -
25/02:30pm 29.3 NNE 12 17 1013.1 - 0.0 - - - - - - -
25/02:00pm 29.8 N 11 17 1013.7 - 0.0 - - - - - - -
25/01:30pm 30.1 NNE 11 16 1014.1 - 0.0 - - - - - - -
25/01:00pm 30.0 N 13 18 1014.6 - 0.0 - - - - - - -
25/12:30pm 31.5 N 10 16 1015.0 - 0.0 - - - - - - -
25/12:00pm 32.3 N 10 15 1015.7 - 0.0 - - - - - - -
25/11:30am 31.0 N 11 17 1016.2 - 0.0 - - - - - - -
25/11:00am 29.4 NNW 12 19 1016.8 - 0.0 - - - - - - -
25/10:30am 28.7 NNW 11 19 1017.1 - 0.0 - - - - - - -
25/10:00am 26.9 NNW 11 17 1017.6 - 0.0 - - - - - - -
25/09:30am 25.0 N 10 15 1017.8 - 0.0 - - - - - - -
25/09:00am 23.1 N 10 13 1018.0 - 0.0 - - - - - - -
25/08:30am 22.0 N 7 10 1018.3 - 0.0 - - - - - - -
25/08:00am 20.1 N 7 11 1018.2 - 0.0 - - - - - - -
25/07:30am 17.2 N 6 8 1018.4 - 0.0 - - - - - - -
25/07:00am 16.1 CALM 0 3 1018.5 - 0.0 - - - - - - -
25/06:30am 15.6 N 6 7 1018.1 - 0.0 - - - - - - -
25/06:00am 15.0 N 5 6 1017.6 - 0.0 - - - - - - -
25/05:30am 15.1 N 4 5 1017.4 - 0.0 - - - - - - -
25/05:00am 15.6 N 5 7 1017.1 - 0.0 - - - - - - -
25/04:30am 15.7 N 8 12 1016.7 - 0.0 - - - - - - -
25/04:00am 15.5 N 5 7 1017.0 - 0.0 - - - - - - -
25/03:30am 15.6 N 5 7 1017.2 - 0.0 - - - - - - -
25/03:00am 16.0 NNW 5 6 1017.5 - 0.0 - - - - - - -
25/02:30am 16.3 N 6 7 1017.6 - 0.0 - - - - - - -
25/02:00am 16.8 N 5 7 1018.1 - 0.0 - - - - - - -
25/01:30am 17.3 N 8 13 1018.2 - 0.0 - - - - - - -
25/01:00am 17.3 N 6 9 1018.8 - 0.0 - - - - - - -
25/12:30am 17.8 N 9 14 1019.0 - 0.0 - - - - - - -
25/12:00am 17.8 NNE 10 15 1019.0 - 0.0 - - - - - - -
 
Date/Time
EDT
Temp

°C
Wind Pressure Rain
since 9am
mm
Weather Cloud Vis
km
Sea
Height
m
Swell
Dir
 
Speed
knots
Gust
knots
hPa Trend Height
m
Period
s
Dir
24/11:30pm 18.1 N 9 12 1020.1 - 0.0 - - - - - - -
24/11:00pm 18.4 N 9 14 1020.3 - 0.0 - - - - - - -
24/10:30pm 18.8 N 10 17 1020.4 - 0.0 - - - - - - -
24/10:00pm 19.0 N 12 19 1020.1 - 0.0 - - - - - - -
24/09:30pm 19.2 NNE 12 16 1020.2 - 0.0 - - - - - - -
24/09:00pm 19.3 NNE 14 22 1020.1 - 0.0 - - - - - - -
24/08:30pm 19.5 NNE 14 20 1019.7 - 0.0 - - - - - - -
24/08:00pm 19.4 N 13 19 1019.5 - 0.0 - - - - - - -
24/07:30pm 19.7 N 14 21 1019.4 - 0.0 - - - - - - -
24/07:00pm 19.8 NNE 14 20 1019.3 - 0.0 - - - - - - -
24/06:30pm 20.2 NNE 13 19 1019.1 - 0.0 - - - - - - -
24/06:00pm 21.0 NNE 15 24 1019.0 - 0.0 - - - - - - -
24/05:30pm 21.7 NNE 13 23 1018.8 - 0.0 - - - - - - -
24/05:00pm 22.5 NNE 14 24 1018.6 - 0.0 - - - - - - -
24/04:30pm 22.9 NNE 15 26 1018.7 - 0.0 - - - - - - -
24/04:10pm 23.4 NE 15 26 1018.8 - 0.0 - - - - - - -
24/04:00pm 24.3 NNE 13 22 1018.8 - 0.0 - - - - - - -
24/03:30pm 24.4 NNE 13 23 1019.1 - 0.0 - - - - - - -
24/03:07pm 24.1 NNE 15 26 1019.3 - 0.0 - - - - - - -
24/03:00pm 23.9 NNE 14 24 1019.4 - 0.0 - - - - - - -
24/02:30pm 24.2 NE 14 22 1019.8 - 0.0 - - - - - - -
24/02:00pm 25.4 NNE 11 21 1020.0 - 0.0 - - - - - - -
24/01:30pm 26.1 NNE 12 19 1020.3 - 0.0 - - - - - - -
24/01:00pm 25.4 NNE 12 18 1020.7 - 0.0 - - - - - - -
24/12:30pm 26.2 NNE 11 19 1020.9 - 0.0 - - - - - - -
24/12:00pm 25.5 NE 10 16 1021.2 - 0.0 - - - - - - -
24/11:30am 24.7 E 11 16 1021.5 - 0.0 - - - - - - -
24/11:00am 23.6 E 11 15 1021.7 - 0.0 - - - - - - -
24/10:30am 25.7 NNW 5 9 1021.8 - 0.0 - - - - - - -
24/10:00am 24.8 N 6 9 1022.2 - 0.0 - - - - - - -
24/09:30am 24.2 N 3 7 1022.2 - 0.0 - - - - - - -
24/09:00am 22.1 N 4 6 1022.2 - 0.0 - - - - - - -
24/08:30am 21.2 N 4 7 1022.1 - 0.0 - - - - - - -
24/08:00am 19.7 N 3 5 1021.9 - 0.0 - - - - - - -
24/07:30am 17.7 N 5 6 1021.7 - 0.0 - - - - - - -
24/07:00am 16.0 NNW 5 6 1021.7 - 0.0 - - - - - - -
24/06:30am 14.8 N 6 7 1021.1 - 0.0 - - - - - - -
24/06:00am 14.4 N 6 7 1020.8 - 0.0 - - - - - - -
24/05:30am 14.9 N 7 10 1020.3 - 0.0 - - - - - - -
24/05:00am 14.9 N 6 7 1020.3 - 0.0 - - - - - - -
24/04:30am 15.6 N 9 12 1019.7 - 0.0 - - - - - - -
24/04:00am 15.6 N 7 11 1019.9 - 0.0 - - - - - - -
24/03:30am 15.9 N 8 11 1019.8 - 0.0 - - - - - - -
24/03:00am 15.8 N 8 11 1019.7 - 0.0 - - - - - - -
24/02:30am 15.7 N 7 9 1020.0 - 0.0 - - - - - - -
24/02:00am 16.1 N 8 10 1020.0 - 0.0 - - - - - - -
24/01:30am 15.9 N 7 10 1020.4 - 0.0 - - - - - - -
24/01:00am 16.1 N 6 7 1020.7 - 0.0 - - - - - - -
24/12:30am 16.9 N 7 11 1020.8 - 0.0 - - - - - - -
24/12:00am 17.2 N 9 13 1020.6 - 0.0 - - - - - - -
 
Date/Time
EDT
Temp

°C
Wind Pressure Rain
since 9am
mm
Weather Cloud Vis
km
Sea
Height
m
Swell
Dir
 
Speed
knots
Gust
knots
hPa Trend Height
m
Period
s
Dir
23/11:30pm 17.4 N 10 14 1020.6 - 0.0 - - - - - - -
23/11:00pm 17.6 N 10 14 1020.5 - 0.0 - - - - - - -
23/10:30pm 17.4 N 9 13 1020.4 - 0.0 - - - - - - -
23/10:00pm 17.5 N 8 10 1020.4 - 0.0 - - - - - - -
23/09:30pm 17.5 N 7 9 1020.4 - 0.0 - - - - - - -
23/09:00pm 18.0 NNE 6 9 1019.9 - 0.0 - - - - - - -
23/08:30pm 18.4 N 7 10 1019.7 - 0.0 - - - - - - -
23/08:00pm 19.1 N 8 13 1019.3 - 0.0 - - - - - - -
23/07:30pm 19.4 N 10 15 1018.8 - 0.0 - - - - - - -
23/07:00pm 19.6 N 10 14 1018.8 - 0.0 - - - - - - -
23/06:30pm 19.8 N 10 15 1018.4 - 0.0 - - - - - - -

Other Formats:

Comma delimited format used in spreadsheet applications
http://www.bom.gov.au/fwo/IDN60701/IDN60701.94598.axf

JavaScript Object Notation format (JSON) in row-major order
http://www.bom.gov.au/fwo/IDN60701/IDN60701.94598.json